This is the latest recevied weather packets stored in our database for station/object KC1OEK-13. If no packets are shown the sender has not sent any weather packets the latest 10 day(s).
| Time | Temp. | Humidity | Pressure | Rain* | Wind** | Luminosity | Snow |
|---|---|---|---|---|---|---|---|
| 1788094416 | 18.89° C | 84% | 1024.1 hPa | 0 mm | - | 147 W/m² | - |
| 1788094113 | 18.33° C | 85% | 1024.5 hPa | 0 mm | - | 290 W/m² | - |
| 1788093808 | 18.33° C | 84% | 1024.3 hPa | 0 mm | - | 303 W/m² | - |
| 1788093505 | 17.22° C | 87% | 1024.4 hPa | 0 mm | - | 306 W/m² | - |
| 1788093201 | 17.22° C | 89% | 1024.4 hPa | 0 mm | - | 269 W/m² | - |
| 1788092899 | 16.11° C | 95% | 1024.4 hPa | 0 mm | - | 258 W/m² | - |
| 1788092594 | 15.56° C | 97% | 1024.5 hPa | 0 mm | - | 206 W/m² | - |
| 1788092289 | 15° C | 98% | 1024.3 hPa | 0 mm | - | 165 W/m² | - |
| 1788091988 | 15° C | 99% | 1024.5 hPa | 0 mm | - | 111 W/m² | - |
| 1788091683 | 15° C | 99% | 1024.4 hPa | 0 mm | - | 118 W/m² | - |
| 1788091379 | 14.44° C | 99% | 1024.5 hPa | 0 mm | - | 110 W/m² | - |
| 1788091075 | 13.89° C | 99% | 1024.5 hPa | 0 mm | - | 87 W/m² | - |
| 1788090771 | 13.89° C | 99% | 1024.6 hPa | 0 mm | - | 84 W/m² | - |
| 1788090467 | 13.33° C | 99% | 1024.6 hPa | 0 mm | - | 73 W/m² | - |
| 1788090162 | 13.33° C | 99% | 1024.6 hPa | 0 mm | - | 78 W/m² | - |
| 1788089858 | 13.33° C | 99% | 1024.9 hPa | 0 mm | - | 63 W/m² | - |
| 1788089558 | 13.33° C | 99% | 1024.7 hPa | 0 mm | - | 63 W/m² | - |
| 1788089254 | 12.78° C | 99% | 1024.6 hPa | 0 mm | - | 57 W/m² | - |
| 1788088950 | 13.33° C | 99% | 1024.7 hPa | 0 mm | - | 49 W/m² | - |
| 1788088646 | 12.78° C | 99% | 1024.4 hPa | 0 mm | - | 37 W/m² | - |
| 1788088341 | 12.78° C | 99% | 1024.6 hPa | 0 mm | - | 32 W/m² | - |
| 1788088040 | 12.78° C | 99% | 1024.7 hPa | 0 mm | - | 30 W/m² | - |
| 1788087738 | 12.78° C | 99% | 1024.7 hPa | 0 mm | - | 24 W/m² | - |
| 1788087436 | 12.78° C | 99% | 1024.6 hPa | 0 mm | - | 23 W/m² | - |
| 1788087132 | 12.78° C | 99% | 1024.5 hPa | 0 mm | - | 21 W/m² | - |
* Rain latest hour (hover to see other rain measurements)
** Current wind speed in m/s (hover to see current wind gust speed)